Time;durP1;ratioP1;P1;durP2;ratioP2;P2;SDS_P1;SDS_P2;PMS_P1;PMS_P2;Temp;Humidity;BMP_temperature;BMP_pressure;BME280_temperature;BME280_humidity;BME280_pressure;Samples;Min_cycle;Max_cycle;Signal;HPM_P1;HPM_P2
2023/09/25 00:01:33;;;;;;;2.13;1.60;;;;;;;;;;6178968;23;20021;-82
2023/09/25 00:04:01;;;;;;;3.15;1.85;;;;;;;;;;6230484;23;20017;-82
2023/09/25 00:06:28;;;;;;;6.03;1.90;;;;;;;;;;6177764;23;20024;-82
2023/09/25 00:09:00;;;;;;;3.70;1.70;;;;;;;;;;6177263;23;20027;-82
2023/09/25 00:11:27;;;;;;;2.85;1.75;;;;;;;;;;6241955;23;20017;-82
2023/09/25 00:13:54;;;;;;;1.58;1.48;;;;;;;;;;6177787;23;20031;-82
2023/09/25 00:16:23;;;;;;;2.72;1.70;;;;;;;;;;6177886;23;20067;-82
2023/09/25 00:18:51;;;;;;;2.35;1.65;;;;;;;;;;6178816;23;20017;-82
2023/09/25 00:21:21;;;;;;;2.80;1.75;;;;;;;;;;6177831;23;20027;-82
2023/09/25 00:23:48;;;;;;;2.97;2.05;;;;;;;;;;6200829;23;20240;-82
2023/09/25 00:26:17;;;;;;;2.72;2.03;;;;;;;;;;6202077;23;20029;-82
2023/09/25 00:28:49;;;;;;;2.17;1.75;;;;;;;;;;6176956;23;20023;-82
2023/09/25 00:31:17;;;;;;;2.10;1.35;;;;;;;;;;6176418;23;20031;-82
2023/09/25 00:33:45;;;;;;;3.63;2.17;;;;;;;;;;6200656;23;20016;-82
2023/09/25 00:36:15;;;;;;;2.38;1.70;;;;;;;;;;6178189;23;20027;-82
2023/09/25 00:38:42;;;;;;;2.70;2.05;;;;;;;;;;6177845;23;20039;-82
2023/09/25 00:41:10;;;;;;;2.55;1.92;;;;;;;;;;6176686;23;20024;-82
2023/09/25 00:43:42;;;;;;;2.22;1.48;;;;;;;;;;6175645;23;20017;-82
2023/09/25 00:46:12;;;;;;;4.25;2.45;;;;;;;;;;6177210;23;20027;-82
2023/09/25 00:48:43;;;;;;;5.05;1.83;;;;;;;;;;6205238;23;20027;-81
2023/09/25 00:51:12;;;;;;;1.80;1.70;;;;;;;;;;6180777;23;20034;-82
2023/09/25 00:53:41;;;;;;;3.78;1.95;;;;;;;;;;6204653;23;20031;-82
2023/09/25 00:56:08;;;;;;;2.47;1.55;;;;;;;;;;6179542;23;20021;-82
2023/09/25 00:58:35;;;;;;;3.13;1.65;;;;;;;;;;6205547;23;20016;-82
2023/09/25 01:01:03;;;;;;;3.03;1.75;;;;;;;;;;6179384;23;20031;-82
2023/09/25 01:06:14;;;;;;;2.88;2.03;;;;;;;;;;6158007;23;20025;-79
2023/09/25 01:08:43;;;;;;;2.08;1.73;;;;;;;;;;6117388;23;20013;-81
2023/09/25 01:11:11;;;;;;;6.93;2.67;;;;;;;;;;6142219;23;20357;-80
2023/09/25 01:13:38;;;;;;;3.45;1.80;;;;;;;;;;6118267;23;20036;-81
2023/09/25 01:16:08;;;;;;;2.75;1.70;;;;;;;;;;6142656;23;20023;-81
2023/09/25 01:18:35;;;;;;;1.52;1.40;;;;;;;;;;6118509;23;20024;-81
2023/09/25 01:21:05;;;;;;;2.95;1.75;;;;;;;;;;6116978;23;20029;-81
2023/09/25 01:23:36;;;;;;;3.70;1.52;;;;;;;;;;6117338;23;20024;-81
2023/09/25 01:26:05;;;;;;;2.47;1.85;;;;;;;;;;6141801;23;20017;-81
2023/09/25 01:28:36;;;;;;;1.92;1.50;;;;;;;;;;6118181;23;20022;-81
2023/09/25 01:31:03;;;;;;;2.10;1.48;;;;;;;;;;6150887;23;20020;-81
2023/09/25 01:33:31;;;;;;;3.20;1.75;;;;;;;;;;6142821;23;20022;-81
2023/09/25 01:36:01;;;;;;;3.38;2.08;;;;;;;;;;6143810;23;20032;-81
2023/09/25 01:38:30;;;;;;;3.08;1.58;;;;;;;;;;6142856;23;20020;-81
2023/09/25 01:41:02;;;;;;;2.90;2.08;;;;;;;;;;6140521;23;20032;-80
2023/09/25 01:43:29;;;;;;;2.20;2.00;;;;;;;;;;6115037;23;20017;-81
2023/09/25 01:45:56;;;;;;;2.85;1.85;;;;;;;;;;6140493;23;20018;-81
2023/09/25 01:48:25;;;;;;;5.20;1.65;;;;;;;;;;6167767;23;20020;-81
2023/09/25 01:50:52;;;;;;;6.97;1.42;;;;;;;;;;6117154;23;20028;-82
2023/09/25 01:53:25;;;;;;;1.77;1.63;;;;;;;;;;6151742;23;20032;-82
2023/09/25 01:55:52;;;;;;;2.17;1.92;;;;;;;;;;6140162;23;20526;-82
2023/09/25 01:58:21;;;;;;;2.22;1.63;;;;;;;;;;6152173;23;20020;-82
2023/09/25 02:00:50;;;;;;;3.53;1.65;;;;;;;;;;6115642;23;20025;-82
2023/09/25 02:03:20;;;;;;;2.97;2.25;;;;;;;;;;6116204;23;20028;-81
2023/09/25 02:20:16;;;;;;;2.33;1.85;;;;;;;;;;6185833;23;20020;-80
2023/09/25 02:22:44;;;;;;;2.72;1.50;;;;;;;;;;6175197;23;20039;-81
2023/09/25 02:25:13;;;;;;;2.05;1.85;;;;;;;;;;6175689;23;20020;-82
2023/09/25 02:27:40;;;;;;;3.22;1.95;;;;;;;;;;6175337;23;20027;-82
2023/09/25 02:30:09;;;;;;;2.97;1.85;;;;;;;;;;6200236;23;20023;-83
2023/09/25 02:32:38;;;;;;;3.80;2.05;;;;;;;;;;6175368;23;20024;-83
2023/09/25 02:35:08;;;;;;;3.05;2.35;;;;;;;;;;6173267;23;20020;-83
2023/09/25 02:37:38;;;;;;;3.63;1.80;;;;;;;;;;6210576;23;20020;-82
2023/09/25 02:40:06;;;;;;;3.22;2.60;;;;;;;;;;6174502;23;20056;-82
2023/09/25 02:42:34;;;;;;;1.95;1.38;;;;;;;;;;6200397;23;20016;-82
2023/09/25 02:45:01;;;;;;;4.68;2.15;;;;;;;;;;6175848;23;20013;-82
2023/09/25 02:47:29;;;;;;;2.60;1.95;;;;;;;;;;6201459;23;20017;-82
2023/09/25 02:49:56;;;;;;;2.38;1.88;;;;;;;;;;6175276;23;20035;-82
2023/09/25 02:52:25;;;;;;;2.08;1.40;;;;;;;;;;6202884;23;20023;-82
2023/09/25 02:54:52;;;;;;;1.83;1.73;;;;;;;;;;6177383;23;20023;-82
2023/09/25 02:57:19;;;;;;;2.38;2.05;;;;;;;;;;6178239;23;20030;-82
2023/09/25 02:59:47;;;;;;;4.28;1.83;;;;;;;;;;6177292;23;20027;-82
2023/09/25 03:02:14;;;;;;;1.48;1.30;;;;;;;;;;6177241;23;20017;-82
2023/09/25 03:04:44;;;;;;;3.40;1.88;;;;;;;;;;6177478;23;20039;-82
2023/09/25 03:07:11;;;;;;;2.10;1.85;;;;;;;;;;6177768;23;20020;-82
2023/09/25 03:09:41;;;;;;;4.53;2.10;;;;;;;;;;6201168;23;20008;-82
2023/09/25 03:12:08;;;;;;;2.63;1.85;;;;;;;;;;6202652;23;20016;-82
2023/09/25 03:14:39;;;;;;;2.13;1.65;;;;;;;;;;6178798;23;20027;-82
2023/09/25 03:17:08;;;;;;;2.47;1.73;;;;;;;;;;6202921;23;20016;-82
2023/09/25 03:19:38;;;;;;;3.70;2.10;;;;;;;;;;6213219;23;20016;-82
2023/09/25 03:22:05;;;;;;;2.00;1.80;;;;;;;;;;6149020;23;20017;-82
2023/09/25 03:24:33;;;;;;;2.03;1.83;;;;;;;;;;6123657;23;20031;-82
2023/09/25 03:27:02;;;;;;;2.50;1.90;;;;;;;;;;6146722;23;20024;-82
2023/09/25 03:29:29;;;;;;;1.92;1.67;;;;;;;;;;6147267;23;20472;-82
2023/09/25 03:31:57;;;;;;;4.38;2.38;;;;;;;;;;6145878;23;20053;-82
2023/09/25 03:34:28;;;;;;;2.55;2.30;;;;;;;;;;6178874;23;20021;-82
2023/09/25 03:36:58;;;;;;;8.75;1.95;;;;;;;;;;6122262;23;20043;-82
2023/09/25 03:39:25;;;;;;;2.55;2.35;;;;;;;;;;6145888;23;20619;-82
2023/09/25 03:41:55;;;;;;;4.75;1.88;;;;;;;;;;6145946;23;20537;-82
2023/09/25 03:44:23;;;;;;;4.78;2.03;;;;;;;;;;6167323;23;20353;-82
2023/09/25 03:46:51;;;;;;;2.90;1.65;;;;;;;;;;6145232;23;20455;-82
2023/09/25 03:49:18;;;;;;;2.58;1.40;;;;;;;;;;6168502;23;20027;-82
2023/09/25 03:51:45;;;;;;;1.65;1.45;;;;;;;;;;6144489;23;20021;-82
2023/09/25 03:54:13;;;;;;;2.38;1.58;;;;;;;;;;6143522;23;20017;-82
2023/09/25 03:56:40;;;;;;;3.60;1.90;;;;;;;;;;6195814;23;20013;-82
2023/09/25 03:59:07;;;;;;;1.48;1.23;;;;;;;;;;6142079;23;20017;-82
2023/09/25 04:01:36;;;;;;;3.53;1.63;;;;;;;;;;6145374;23;20027;-82
2023/09/25 04:04:03;;;;;;;3.10;1.63;;;;;;;;;;6194715;23;20017;-82
2023/09/25 04:06:30;;;;;;;3.28;1.63;;;;;;;;;;6144447;23;20422;-82
2023/09/25 04:08:58;;;;;;;1.75;1.20;;;;;;;;;;6144545;23;20024;-82
2023/09/25 04:11:25;;;;;;;2.05;1.88;;;;;;;;;;6195278;23;20024;-82
2023/09/25 04:13:56;;;;;;;2.70;2.25;;;;;;;;;;6168114;23;20020;-84
2023/09/25 04:16:23;;;;;;;3.50;2.10;;;;;;;;;;6144262;23;20028;-82
2023/09/25 04:18:52;;;;;;;2.20;1.60;;;;;;;;;;6168936;23;20027;-82
2023/09/25 04:21:21;;;;;;;4.13;2.95;;;;;;;;;;6162636;23;20043;-82
2023/09/25 04:23:51;;;;;;;2.70;1.75;;;;;;;;;;6174983;23;20034;-82
2023/09/25 04:26:18;;;;;;;3.08;1.63;;;;;;;;;;6174370;23;20016;-82
2023/09/25 04:28:48;;;;;;;1.60;1.48;;;;;;;;;;6176487;23;20031;-83
2023/09/25 04:31:15;;;;;;;1.80;1.50;;;;;;;;;;6198476;23;20016;-83
2023/09/25 04:33:42;;;;;;;3.15;1.98;;;;;;;;;;6198499;23;20023;-82
2023/09/25 04:36:12;;;;;;;2.53;1.85;;;;;;;;;;6198479;23;20013;-82
2023/09/25 04:38:39;;;;;;;3.35;1.58;;;;;;;;;;6236320;23;20036;-82
2023/09/25 04:41:09;;;;;;;1.15;1.00;;;;;;;;;;6200281;23;20015;-82
2023/09/25 04:43:37;;;;;;;2.45;1.55;;;;;;;;;;6180357;23;20364;-82
2023/09/25 04:46:04;;;;;;;2.80;1.67;;;;;;;;;;6183195;23;20035;-83
2023/09/25 04:48:31;;;;;;;2.50;1.85;;;;;;;;;;6184110;23;20031;-83
2023/09/25 04:50:58;;;;;;;3.13;1.73;;;;;;;;;;6182168;23;20017;-83
2023/09/25 04:53:27;;;;;;;2.97;2.33;;;;;;;;;;6230965;23;20020;-83
2023/09/25 04:55:54;;;;;;;2.70;1.85;;;;;;;;;;6203215;23;20027;-82
2023/09/25 04:58:22;;;;;;;2.00;1.33;;;;;;;;;;6201016;23;20024;-82
2023/09/25 05:00:49;;;;;;;1.88;1.40;;;;;;;;;;6197690;23;20017;-82
2023/09/25 05:03:16;;;;;;;3.55;2.15;;;;;;;;;;6173833;23;20025;-82
2023/09/25 05:05:43;;;;;;;3.28;1.88;;;;;;;;;;6198546;23;20027;-82
2023/09/25 05:08:13;;;;;;;5.28;2.08;;;;;;;;;;6174413;23;20031;-82
2023/09/25 05:10:42;;;;;;;2.85;2.55;;;;;;;;;;6200283;23;20008;-82
2023/09/25 05:13:09;;;;;;;3.33;2.28;;;;;;;;;;6175737;23;20027;-83
2023/09/25 05:15:36;;;;;;;2.65;2.08;;;;;;;;;;6178521;23;20020;-82
2023/09/25 05:18:04;;;;;;;3.80;2.22;;;;;;;;;;6177560;23;20020;-82
2023/09/25 05:20:34;;;;;;;2.85;2.55;;;;;;;;;;6192215;23;20337;-83
2023/09/25 05:23:01;;;;;;;6.72;2.05;;;;;;;;;;6172970;23;20021;-82
2023/09/25 05:25:30;;;;;;;2.40;1.52;;;;;;;;;;6171422;23;20036;-82
2023/09/25 05:27:59;;;;;;;3.15;2.10;;;;;;;;;;6146704;23;20461;-82
2023/09/25 05:30:28;;;;;;;2.25;1.67;;;;;;;;;;6169937;23;20027;-82
2023/09/25 05:32:58;;;;;;;2.78;2.00;;;;;;;;;;6171443;23;20031;-82
2023/09/25 05:35:28;;;;;;;2.33;2.13;;;;;;;;;;6171423;23;20036;-82
2023/09/25 05:37:55;;;;;;;3.25;2.05;;;;;;;;;;6183839;23;20040;-82
2023/09/25 05:40:25;;;;;;;2.33;1.67;;;;;;;;;;6147185;23;20017;-82
2023/09/25 05:42:52;;;;;;;4.25;2.03;;;;;;;;;;6182501;23;20017;-82
2023/09/25 05:45:23;;;;;;;2.25;2.05;;;;;;;;;;6148496;23;20024;-82
2023/09/25 05:47:51;;;;;;;3.47;1.95;;;;;;;;;;6148956;23;20031;-82
2023/09/25 05:50:18;;;;;;;2.90;2.53;;;;;;;;;;6172362;23;20032;-82
2023/09/25 05:52:45;;;;;;;2.38;2.00;;;;;;;;;;6172947;23;20021;-82
2023/09/25 05:55:12;;;;;;;3.90;2.58;;;;;;;;;;6172450;23;20021;-82
2023/09/25 06:25:59;;;;;;;2.92;2.17;;;;;;;;;;6228080;23;20020;-82
2023/09/25 06:28:29;;;;;;;4.35;3.35;;;;;;;;;;6175200;23;20021;-81
2023/09/25 06:30:59;;;;;;;2.80;2.60;;;;;;;;;;6238732;23;20015;-81
2023/09/25 06:33:29;;;;;;;5.22;3.08;;;;;;;;;;6201819;23;20023;-81
2023/09/25 06:35:59;;;;;;;3.22;2.33;;;;;;;;;;6177237;23;20024;-81
2023/09/25 06:38:26;;;;;;;3.03;2.03;;;;;;;;;;6177869;23;20024;-81
2023/09/25 06:40:53;;;;;;;2.15;1.80;;;;;;;;;;6200643;23;20468;-81
2023/09/25 06:43:22;;;;;;;1.60;1.50;;;;;;;;;;6176153;23;20035;-81
2023/09/25 06:45:49;;;;;;;2.67;2.10;;;;;;;;;;6227427;23;20016;-82
2023/09/25 06:48:17;;;;;;;3.95;2.35;;;;;;;;;;6227047;23;20021;-82
2023/09/25 06:50:47;;;;;;;3.47;2.60;;;;;;;;;;6225112;23;20016;-82
2023/09/25 06:53:14;;;;;;;2.72;2.00;;;;;;;;;;6234964;23;20012;-82
2023/09/25 06:55:46;;;;;;;4.43;3.13;;;;;;;;;;6197211;23;20035;-82
2023/09/25 06:58:16;;;;;;;4.45;2.70;;;;;;;;;;6201489;23;20026;-82
2023/09/25 07:00:46;;;;;;;10.50;2.13;;;;;;;;;;6172099;23;20016;-82
2023/09/25 07:03:18;;;;;;;3.78;2.45;;;;;;;;;;6209374;23;20019;-82
2023/09/25 07:05:45;;;;;;;3.25;2.35;;;;;;;;;;6152075;23;20021;-83
2023/09/25 07:08:18;;;;;;;3.20;2.63;;;;;;;;;;6127955;23;20032;-82
2023/09/25 07:10:46;;;;;;;3.28;1.83;;;;;;;;;;6151115;23;20014;-82
2023/09/25 07:13:23;;;;;;;3.50;1.88;;;;;;;;;;6161767;23;20013;-83
2023/09/25 10:03:45;;;;;;;2.05;1.55;;;;;;;;;;6190503;23;20025;-83
2023/09/25 10:06:12;;;;;;;3.53;2.22;;;;;;;;;;6175164;23;20016;-82
2023/09/25 10:08:39;;;;;;;2.15;1.73;;;;;;;;;;6224402;23;20018;-82
2023/09/25 10:11:17;;;;;;;3.83;2.15;;;;;;;;;;6172679;23;20468;-82
2023/09/25 10:13:46;;;;;;;1.92;1.67;;;;;;;;;;6172736;23;20039;-82
2023/09/25 10:16:15;;;;;;;3.53;1.98;;;;;;;;;;6198247;23;20017;-81
2023/09/25 10:18:46;;;;;;;2.00;1.80;;;;;;;;;;6173770;23;20632;-81
2023/09/25 10:21:15;;;;;;;3.33;1.92;;;;;;;;;;6226151;23;20013;-81
2023/09/25 10:23:44;;;;;;;2.00;1.80;;;;;;;;;;6175501;23;20016;-82
2023/09/25 10:26:20;;;;;;;3.38;1.98;;;;;;;;;;6174610;23;20092;-82
2023/09/25 10:28:59;;;;;;;3.35;1.83;;;;;;;;;;6202266;23;20019;-82
2023/09/25 10:31:29;;;;;;;2.72;2.25;;;;;;;;;;6230768;23;20463;-82
2023/09/25 10:33:59;;;;;;;2.13;1.70;;;;;;;;;;6161480;23;20025;-82
2023/09/25 10:36:37;;;;;;;2.88;1.77;;;;;;;;;;6162537;23;20020;-82
2023/09/25 10:39:07;;;;;;;4.55;2.33;;;;;;;;;;6212798;23;20017;-82
2023/09/25 10:41:34;;;;;;;5.40;1.95;;;;;;;;;;6171711;23;20012;-82
2023/09/25 10:44:02;;;;;;;2.17;1.77;;;;;;;;;;6199844;23;20017;-82
2023/09/25 10:46:30;;;;;;;2.30;1.52;;;;;;;;;;6175254;23;20020;-82
2023/09/25 10:48:59;;;;;;;1.98;1.42;;;;;;;;;;6201750;23;20023;-82
2023/09/25 10:51:26;;;;;;;6.53;2.15;;;;;;;;;;6173728;23;20027;-82
2023/09/25 10:53:54;;;;;;;3.22;1.58;;;;;;;;;;6198901;23;20024;-85
2023/09/25 11:54:39;;;;;;;1.65;1.55;;;;;;;;;;6231755;23;20017;-82
2023/09/25 11:57:19;;;;;;;4.53;2.03;;;;;;;;;;6198639;23;20016;-82
2023/09/25 11:59:51;;;;;;;1.95;1.48;;;;;;;;;;6228685;23;20043;-82
2023/09/25 12:02:23;;;;;;;3.38;2.38;;;;;;;;;;6194094;23;20020;-82
2023/09/25 12:04:53;;;;;;;2.83;1.90;;;;;;;;;;6172653;23;20025;-82
2023/09/25 13:06:01;;;;;;;1.60;1.50;;;;;;;;;;6215315;23;20020;-82
2023/09/25 13:08:31;;;;;;;2.00;1.48;;;;;;;;;;6168901;23;20024;-82
2023/09/25 13:11:01;;;;;;;3.05;1.85;;;;;;;;;;6169441;23;20013;-82
2023/09/25 13:13:31;;;;;;;5.32;1.52;;;;;;;;;;6220006;23;20009;-82
2023/09/25 13:15:59;;;;;;;2.42;1.45;;;;;;;;;;6192608;23;20016;-82
2023/09/25 13:18:26;;;;;;;2.05;1.85;;;;;;;;;;6192993;23;20452;-82
2023/09/25 13:20:55;;;;;;;3.20;1.98;;;;;;;;;;6168567;23;20017;-81
2023/09/25 13:23:24;;;;;;;2.38;1.60;;;;;;;;;;6191685;23;20468;-81
2023/09/25 13:25:53;;;;;;;3.38;1.83;;;;;;;;;;6192714;23;20078;-82
2023/09/25 13:28:45;;;;;;;;;;;;;;;;;;;;;
2023/09/25 13:31:16;;;;;;;1.83;1.52;;;;;;;;;;6185892;23;20021;-82
2023/09/25 13:33:44;;;;;;;2.05;1.60;;;;;;;;;;6192987;23;20013;-82
2023/09/25 13:36:10;;;;;;;10.43;2.13;;;;;;;;;;6193310;23;20024;-82
2023/09/25 13:38:42;;;;;;;4.18;2.13;;;;;;;;;;6167465;23;20017;-82
2023/09/25 13:41:10;;;;;;;1.80;1.52;;;;;;;;;;6168358;23;20024;-82
2023/09/25 13:43:39;;;;;;;1.60;1.30;;;;;;;;;;6192000;23;20027;-81
2023/09/25 13:46:07;;;;;;;2.75;1.75;;;;;;;;;;6193234;23;20019;-82
2023/09/25 13:48:35;;;;;;;2.20;2.00;;;;;;;;;;6193619;23;20017;-82
2023/09/25 13:51:04;;;;;;;2.40;1.77;;;;;;;;;;6191347;23;20035;-82
2023/09/25 13:53:31;;;;;;;2.15;1.45;;;;;;;;;;6218668;23;20012;-82
2023/09/25 13:56:00;;;;;;;2.03;1.75;;;;;;;;;;6192299;23;20030;-82
2023/09/25 13:58:28;;;;;;;1.95;1.30;;;;;;;;;;6167677;23;20023;-81
2023/09/25 14:00:56;;;;;;;2.92;2.45;;;;;;;;;;6220522;23;20024;-82
2023/09/25 14:03:23;;;;;;;1.60;1.50;;;;;;;;;;6167645;23;20017;-82
2023/09/25 14:05:51;;;;;;;2.22;2.03;;;;;;;;;;6167531;23;20021;-82
2023/09/25 14:08:19;;;;;;;2.95;1.73;;;;;;;;;;6189445;23;20341;-82
2023/09/25 14:10:47;;;;;;;1.75;1.45;;;;;;;;;;6137193;23;20025;-82
2023/09/25 14:13:17;;;;;;;3.00;2.15;;;;;;;;;;6138271;23;20017;-82
2023/09/25 14:15:51;;;;;;;4.18;1.70;;;;;;;;;;6137781;23;20017;-82
2023/09/25 14:18:18;;;;;;;2.35;2.03;;;;;;;;;;6199628;23;20019;-82
2023/09/25 14:20:46;;;;;;;3.08;2.17;;;;;;;;;;6160987;23;20024;-82
2023/09/25 14:23:15;;;;;;;3.33;2.00;;;;;;;;;;6161797;23;20024;-82
2023/09/25 14:25:43;;;;;;;2.15;1.63;;;;;;;;;;6137692;23;20036;-82
2023/09/25 14:28:10;;;;;;;2.08;1.83;;;;;;;;;;6137254;23;20354;-81
2023/09/25 14:30:39;;;;;;;2.67;2.17;;;;;;;;;;6163096;23;20013;-81
2023/09/25 14:33:09;;;;;;;2.35;2.00;;;;;;;;;;6138103;23;20017;-81
2023/09/25 14:35:37;;;;;;;3.90;2.10;;;;;;;;;;6190328;23;20385;-81
2023/09/25 14:38:10;;;;;;;;;;;;;;;;;;6140629;23;20021;-81
2023/09/25 14:40:37;;;;;;;4.53;2.15;;;;;;;;;;6172913;23;19931;-82
2023/09/25 14:43:04;;;;;;;2.35;1.73;;;;;;;;;;6162111;23;20013;-82
2023/09/25 14:45:32;;;;;;;3.47;2.40;;;;;;;;;;6161823;23;20020;-82
2023/09/25 14:48:00;;;;;;;5.03;1.98;;;;;;;;;;6137178;23;20021;-82
2023/09/25 14:50:28;;;;;;;4.00;2.20;;;;;;;;;;6138010;23;20510;-82
2023/09/25 14:52:55;;;;;;;3.63;1.92;;;;;;;;;;6161235;23;20021;-82
2023/09/25 14:55:22;;;;;;;2.00;1.80;;;;;;;;;;6136648;23;20028;-82
2023/09/25 14:57:50;;;;;;;1.88;1.73;;;;;;;;;;6137922;23;20025;-82
2023/09/25 15:00:18;;;;;;;4.75;1.90;;;;;;;;;;6137601;23;20462;-82
2023/09/25 15:02:45;;;;;;;5.25;2.10;;;;;;;;;;6137643;23;20013;-81
2023/09/25 15:05:14;;;;;;;4.88;1.90;;;;;;;;;;6155953;23;20198;-82
2023/09/25 15:07:42;;;;;;;7.65;2.63;;;;;;;;;;6192440;23;20020;-82
2023/09/25 15:10:10;;;;;;;2.08;1.80;;;;;;;;;;6192004;23;20503;-81
2023/09/25 15:12:37;;;;;;;2.17;1.70;;;;;;;;;;6167427;23;20023;-82
2023/09/25 15:15:05;;;;;;;1.88;1.60;;;;;;;;;;6166758;23;20024;-82
2023/09/25 15:17:32;;;;;;;2.53;1.45;;;;;;;;;;6193060;23;20012;-81
2023/09/25 15:20:01;;;;;;;2.38;1.90;;;;;;;;;;6166090;23;20290;-81
2023/09/25 15:22:30;;;;;;;3.30;2.28;;;;;;;;;;6217028;23;20025;-81
2023/09/25 15:24:57;;;;;;;8.90;1.90;;;;;;;;;;6166692;23;20017;-82
2023/09/25 15:27:25;;;;;;;2.75;1.90;;;;;;;;;;6218609;23;20020;-82
2023/09/25 15:57:04;;;;;;;4.03;1.77;;;;;;;;;;6207465;23;20032;-81
2023/09/25 15:59:37;;;;;;;2.78;1.98;;;;;;;;;;6188537;23;20023;-82
2023/09/25 16:02:06;;;;;;;3.17;1.67;;;;;;;;;;6163942;23;20020;-82
2023/09/25 16:04:35;;;;;;;2.13;1.90;;;;;;;;;;6166771;23;20024;-81
2023/09/25 16:07:02;;;;;;;4.75;1.40;;;;;;;;;;6162552;23;20016;-82
2023/09/25 16:09:29;;;;;;;3.22;2.38;;;;;;;;;;6161271;23;20013;-82
2023/09/25 16:11:59;;;;;;;1.90;1.42;;;;;;;;;;6186369;23;20017;-82
2023/09/25 16:14:28;;;;;;;3.13;1.65;;;;;;;;;;6162246;23;20017;-82
2023/09/25 16:36:30;;;;;;;2.00;1.60;;;;;;;;;;6212602;23;20021;-83
2023/09/25 16:38:59;;;;;;;15.30;3.28;;;;;;;;;;6159653;23;20140;-83
2023/09/25 16:41:27;;;;;;;3.30;2.10;;;;;;;;;;6158001;23;20020;-83
2023/09/25 16:43:54;;;;;;;2.20;1.98;;;;;;;;;;6160824;23;20460;-83
2023/09/25 16:46:24;;;;;;;4.32;2.20;;;;;;;;;;6162716;23;20027;-81
2023/09/25 16:48:53;;;;;;;4.78;3.05;;;;;;;;;;6161229;23;20035;-82
2023/09/25 16:51:21;;;;;;;5.10;2.55;;;;;;;;;;6186499;23;20021;-81
2023/09/25 16:53:52;;;;;;;8.38;4.40;;;;;;;;;;6162887;23;20016;-81
2023/09/25 16:56:22;;;;;;;7.63;4.57;;;;;;;;;;6188585;23;20020;-82
2023/09/25 16:58:49;;;;;;;7.82;3.45;;;;;;;;;;6215524;23;20445;-82
2023/09/25 17:01:17;;;;;;;2.30;2.10;;;;;;;;;;6186838;23;20020;-82
2023/09/25 17:03:47;;;;;;;2.53;2.15;;;;;;;;;;6213305;23;20024;-83
2023/09/25 17:06:17;;;;;;;1.83;1.65;;;;;;;;;;6165074;23;20057;-83
2023/09/25 17:08:47;;;;;;;2.65;2.05;;;;;;;;;;6189473;23;20035;-82
2023/09/25 17:11:19;;;;;;;3.35;3.05;;;;;;;;;;6165418;23;20017;-82
2023/09/25 17:13:47;;;;;;;2.20;2.00;;;;;;;;;;6189201;23;20449;-82
2023/09/25 17:16:14;;;;;;;2.33;2.03;;;;;;;;;;6164371;23;20017;-82
2023/09/25 17:18:41;;;;;;;2.95;2.53;;;;;;;;;;6165728;23;20032;-82
2023/09/25 17:21:11;;;;;;;2.38;2.17;;;;;;;;;;6190019;23;20027;-83
2023/09/25 17:23:38;;;;;;;2.97;2.72;;;;;;;;;;6189863;23;20013;-81
2023/09/25 17:26:05;;;;;;;3.55;2.90;;;;;;;;;;6165128;23;20020;-81
2023/09/25 17:28:34;;;;;;;2.60;2.40;;;;;;;;;;6218210;23;20034;-82
2023/09/25 17:31:05;;;;;;;3.20;2.72;;;;;;;;;;6190447;23;20469;-83
2023/09/25 17:33:33;;;;;;;3.42;3.13;;;;;;;;;;6190372;23;20499;-82
2023/09/25 17:36:00;;;;;;;4.75;3.25;;;;;;;;;;6164978;23;20016;-83
2023/09/25 17:38:30;;;;;;;4.70;2.80;;;;;;;;;;6165747;23;20036;-80
2023/09/25 17:40:57;;;;;;;2.60;2.40;;;;;;;;;;6212030;23;20023;-81
2023/09/25 17:43:28;;;;;;;2.90;2.53;;;;;;;;;;6165178;23;20017;-82
2023/09/25 17:45:56;;;;;;;5.32;2.83;;;;;;;;;;6166761;23;20464;-83
2023/09/25 17:48:24;;;;;;;3.33;2.55;;;;;;;;;;6167044;23;20016;-82
2023/09/25 17:50:54;;;;;;;3.97;2.00;;;;;;;;;;6194061;23;20017;-82
2023/09/25 17:53:23;;;;;;;3.25;2.45;;;;;;;;;;6193133;23;20031;-82
2023/09/25 17:55:53;;;;;;;3.72;2.22;;;;;;;;;;6191764;23;20019;-82
2023/09/25 17:58:21;;;;;;;4.43;2.85;;;;;;;;;;6193389;23;20021;-82
2023/09/25 18:00:53;;;;;;;3.22;2.28;;;;;;;;;;6228209;23;20023;-82
2023/09/25 18:03:24;;;;;;;2.33;2.13;;;;;;;;;;6167397;23;20351;-83
2023/09/25 18:05:52;;;;;;;6.38;3.20;;;;;;;;;;6191887;23;20017;-82
2023/09/25 18:08:19;;;;;;;10.88;3.08;;;;;;;;;;6193724;23;20012;-82
2023/09/25 18:10:46;;;;;;;3.47;3.17;;;;;;;;;;6167930;23;20020;-81
2023/09/25 18:13:16;;;;;;;3.60;3.30;;;;;;;;;;6194260;23;20021;-82
2023/09/25 18:15:45;;;;;;;2.50;2.10;;;;;;;;;;6193459;23;20023;-82
2023/09/25 18:18:13;;;;;;;5.88;2.47;;;;;;;;;;6193151;23;20030;-82
2023/09/25 18:20:41;;;;;;;4.00;2.88;;;;;;;;;;6167585;23;20029;-82
2023/09/25 18:23:11;;;;;;;6.32;3.33;;;;;;;;;;6192657;23;20485;-82
2023/09/25 18:25:41;;;;;;;3.53;2.97;;;;;;;;;;6193189;23;20024;-82
2023/09/25 18:28:13;;;;;;;9.30;4.17;;;;;;;;;;6203244;23;20020;-82
2023/09/25 18:30:40;;;;;;;4.82;3.20;;;;;;;;;;6219810;23;20248;-81
2023/09/25 18:33:09;;;;;;;4.47;3.20;;;;;;;;;;6218390;23;20012;-81
2023/09/25 18:35:40;;;;;;;2.80;2.47;;;;;;;;;;6227637;23;20022;-81
2023/09/25 18:38:08;;;;;;;3.00;2.50;;;;;;;;;;6220329;23;20460;-83
2023/09/25 18:40:35;;;;;;;3.90;3.33;;;;;;;;;;6246708;22;20012;-83
2023/09/25 18:43:02;;;;;;;7.90;3.00;;;;;;;;;;6225242;22;20018;-82
2023/09/25 18:45:30;;;;;;;3.40;2.90;;;;;;;;;;6166544;23;20013;-82
2023/09/25 18:47:57;;;;;;;4.15;3.00;;;;;;;;;;6158735;23;20013;-82
2023/09/25 18:50:24;;;;;;;3.33;3.03;;;;;;;;;;6189001;23;20024;-82
2023/09/25 18:52:53;;;;;;;3.58;3.00;;;;;;;;;;6163056;23;20021;-82
2023/09/25 18:55:20;;;;;;;5.28;2.85;;;;;;;;;;6189089;23;20013;-82
2023/09/25 18:57:48;;;;;;;3.33;2.70;;;;;;;;;;6162832;23;20020;-82
2023/09/25 19:00:17;;;;;;;4.65;3.72;;;;;;;;;;6185706;23;20035;-82
2023/09/25 19:02:45;;;;;;;3.22;2.88;;;;;;;;;;6163064;23;20028;-82
2023/09/25 19:05:17;;;;;;;6.03;3.35;;;;;;;;;;6164512;23;20017;-82
2023/09/25 19:07:47;;;;;;;3.75;2.55;;;;;;;;;;6165719;23;20025;-80
2023/09/25 19:10:18;;;;;;;4.43;3.78;;;;;;;;;;6171706;23;20020;-80
2023/09/25 19:12:48;;;;;;;4.00;3.60;;;;;;;;;;6138782;23;20032;-80
2023/09/25 19:15:19;;;;;;;7.07;4.45;;;;;;;;;;6162921;23;20032;-80
2023/09/25 19:17:49;;;;;;;3.15;2.85;;;;;;;;;;6131228;23;20476;-83
2023/09/25 19:20:16;;;;;;;4.00;3.20;;;;;;;;;;6154340;23;20033;-83
2023/09/25 19:22:44;;;;;;;3.67;3.38;;;;;;;;;;6155195;23;20018;-82
2023/09/25 19:25:13;;;;;;;5.10;3.63;;;;;;;;;;6155316;23;20029;-83
2023/09/25 19:27:45;;;;;;;5.00;3.58;;;;;;;;;;6156115;23;20028;-83
2023/09/25 19:30:14;;;;;;;6.43;4.53;;;;;;;;;;6130572;23;20021;-83
2023/09/25 19:32:41;;;;;;;4.82;3.65;;;;;;;;;;6131987;23;20021;-83
2023/09/25 19:35:09;;;;;;;4.53;4.13;;;;;;;;;;6157193;23;20017;-83
2023/09/25 19:37:37;;;;;;;4.15;3.67;;;;;;;;;;6131131;23;20029;-83
2023/09/25 19:40:05;;;;;;;4.22;3.33;;;;;;;;;;6154288;23;20025;-83
2023/09/25 19:42:37;;;;;;;5.28;4.10;;;;;;;;;;6130673;23;20037;-83
2023/09/25 19:45:07;;;;;;;3.20;2.65;;;;;;;;;;6155188;23;20028;-83
2023/09/25 19:47:36;;;;;;;4.63;3.47;;;;;;;;;;6146423;23;20353;-84
2023/09/25 19:50:08;;;;;;;4.18;3.42;;;;;;;;;;6130100;23;20032;-83
2023/09/25 19:52:35;;;;;;;4.95;3.83;;;;;;;;;;6130131;23;20028;-84
2023/09/25 19:55:06;;;;;;;3.67;3.30;;;;;;;;;;6105814;23;20028;-84
2023/09/25 19:57:38;;;;;;;3.80;3.50;;;;;;;;;;6131119;23;20033;-83
2023/09/25 20:00:10;;;;;;;4.65;4.00;;;;;;;;;;6141829;23;20468;-83
2023/09/25 20:02:41;;;;;;;5.00;4.03;;;;;;;;;;6163136;23;20677;-84
2023/09/25 20:05:09;;;;;;;8.05;4.38;;;;;;;;;;6106013;23;20017;-83
2023/09/25 20:07:36;;;;;;;4.38;3.97;;;;;;;;;;6129061;23;20029;-83
2023/09/25 20:10:04;;;;;;;5.00;4.20;;;;;;;;;;6105244;23;20018;-83
2023/09/25 20:12:33;;;;;;;5.13;4.28;;;;;;;;;;6130492;23;20021;-83
2023/09/25 20:15:01;;;;;;;4.03;3.63;;;;;;;;;;6129889;23;20021;-84
2023/09/25 20:17:32;;;;;;;4.15;3.75;;;;;;;;;;6108810;23;20365;-83
2023/09/25 20:19:59;;;;;;;4.40;4.00;;;;;;;;;;6130385;23;20017;-84
2023/09/25 20:22:29;;;;;;;4.07;3.55;;;;;;;;;;6109532;23;20018;-83
2023/09/25 20:24:56;;;;;;;4.88;3.83;;;;;;;;;;6083827;23;20022;-83
2023/09/25 20:27:23;;;;;;;4.38;4.03;;;;;;;;;;6105192;23;20018;-83
2023/09/25 20:29:51;;;;;;;5.53;5.00;;;;;;;;;;6132049;23;20031;-83
2023/09/25 20:32:18;;;;;;;4.57;4.18;;;;;;;;;;6157677;23;20021;-83
2023/09/25 20:34:49;;;;;;;5.25;4.38;;;;;;;;;;6137240;23;20017;-83
2023/09/25 20:37:17;;;;;;;4.50;3.33;;;;;;;;;;6141044;23;20035;-83
2023/09/25 20:39:46;;;;;;;7.45;4.35;;;;;;;;;;6130873;23;20028;-83
2023/09/25 20:42:15;;;;;;;4.03;3.63;;;;;;;;;;6131000;23;20311;-83
2023/09/25 20:44:45;;;;;;;6.70;4.55;;;;;;;;;;6131406;23;20017;-84
2023/09/25 20:47:13;;;;;;;4.82;3.15;;;;;;;;;;6183006;23;20016;-83
2023/09/25 20:49:40;;;;;;;4.65;3.60;;;;;;;;;;6185721;23;20028;-83
2023/09/25 20:52:11;;;;;;;4.53;4.13;;;;;;;;;;6160930;23;20017;-83
2023/09/25 20:54:41;;;;;;;3.65;3.35;;;;;;;;;;6196535;23;20028;-84
2023/09/25 20:57:11;;;;;;;5.90;4.97;;;;;;;;;;6138404;23;20023;-84
2023/09/25 20:59:39;;;;;;;6.05;4.75;;;;;;;;;;6160513;23;20081;-83
2023/09/25 21:02:06;;;;;;;5.72;4.30;;;;;;;;;;6159347;23;20474;-84
2023/09/25 21:04:33;;;;;;;8.20;4.60;;;;;;;;;;6139786;23;20017;-83
2023/09/25 21:07:00;;;;;;;3.60;3.30;;;;;;;;;;6163389;23;20017;-83
2023/09/25 21:09:29;;;;;;;5.00;4.57;;;;;;;;;;6138793;23;20025;-83